sensor_id;sensor_type;location;lat;lon;timestamp;pressure;altitude;pressure_sealevel;temperature;humidity
46955;BME280;32708;51.212;6.788;2023-05-21T00:01:51;101101.47;;;20.46;84.33
46955;BME280;32708;51.212;6.788;2023-05-21T00:04:18;101098.28;;;20.81;84.25
46955;BME280;32708;51.212;6.788;2023-05-21T00:06:45;101097.97;;;20.90;82.84
46955;BME280;32708;51.212;6.788;2023-05-21T00:09:11;101097.41;;;21.14;81.52
46955;BME280;32708;51.212;6.788;2023-05-21T00:11:38;101088.56;;;20.61;84.30
46955;BME280;32708;51.212;6.788;2023-05-21T00:14:04;101093.69;;;20.59;84.11
46955;BME280;32708;51.212;6.788;2023-05-21T00:16:30;101086.72;;;20.72;83.88
46955;BME280;32708;51.212;6.788;2023-05-21T00:18:56;101085.31;;;21.30;80.67
46955;BME280;32708;51.212;6.788;2023-05-21T00:21:23;101077.91;;;21.07;80.41
46955;BME280;32708;51.212;6.788;2023-05-21T00:23:52;101078.41;;;21.16;79.36
46955;BME280;32708;51.212;6.788;2023-05-21T00:26:22;101077.91;;;20.67;83.72
46955;BME280;32708;51.212;6.788;2023-05-21T00:28:55;101084.19;;;20.30;86.18
46955;BME280;32708;51.212;6.788;2023-05-21T00:31:21;101079.81;;;20.96;82.66
46955;BME280;32708;51.212;6.788;2023-05-21T00:33:50;101081.13;;;20.39;84.78
46955;BME280;32708;51.212;6.788;2023-05-21T00:36:16;101072.44;;;20.74;84.04
46955;BME280;32708;51.212;6.788;2023-05-21T00:38:43;101078.75;;;20.71;83.83
46955;BME280;32708;51.212;6.788;2023-05-21T00:41:10;101072.94;;;20.49;84.59
46955;BME280;32708;51.212;6.788;2023-05-21T00:43:37;101070.22;;;20.53;83.65
46955;BME280;32708;51.212;6.788;2023-05-21T00:46:17;101070.81;;;20.39;85.48
46955;BME280;32708;51.212;6.788;2023-05-21T00:48:45;101065.31;;;20.43;85.28
46955;BME280;32708;51.212;6.788;2023-05-21T00:51:15;101064.44;;;20.69;84.32
46955;BME280;32708;51.212;6.788;2023-05-21T00:53:44;101058.88;;;20.65;83.07
46955;BME280;32708;51.212;6.788;2023-05-21T00:56:11;101060.91;;;20.38;85.36
46955;BME280;32708;51.212;6.788;2023-05-21T00:58:39;101053.78;;;20.37;84.80
46955;BME280;32708;51.212;6.788;2023-05-21T01:01:05;101057.72;;;20.36;85.21
46955;BME280;32708;51.212;6.788;2023-05-21T01:03:34;101059.59;;;20.28;85.01
46955;BME280;32708;51.212;6.788;2023-05-21T01:06:05;101071.91;;;20.31;86.82
46955;BME280;32708;51.212;6.788;2023-05-21T01:08:32;101072.56;;;20.21;86.49
46955;BME280;32708;51.212;6.788;2023-05-21T01:11:10;101060.91;;;20.38;85.55
46955;BME280;32708;51.212;6.788;2023-05-21T01:13:39;101057.81;;;19.83;89.00
46955;BME280;32708;51.212;6.788;2023-05-21T01:16:09;101056.81;;;19.45;92.10
46955;BME280;32708;51.212;6.788;2023-05-21T01:18:36;101069.78;;;19.91;89.89
46955;BME280;32708;51.212;6.788;2023-05-21T01:21:04;101061.94;;;19.43;92.94
46955;BME280;32708;51.212;6.788;2023-05-21T01:23:33;101062.47;;;19.52;92.50
46955;BME280;32708;51.212;6.788;2023-05-21T01:25:59;101053.25;;;19.98;89.28
46955;BME280;32708;51.212;6.788;2023-05-21T01:28:25;101060.69;;;19.90;88.85
46955;BME280;32708;51.212;6.788;2023-05-21T01:30:51;101064.44;;;19.52;91.96
46955;BME280;32708;51.212;6.788;2023-05-21T01:33:46;101062.00;;;19.24;94.79
46955;BME280;32708;51.212;6.788;2023-05-21T01:36:28;101058.63;;;19.11;95.20
46955;BME280;32708;51.212;6.788;2023-05-21T01:39:15;101049.16;;;19.58;91.16
46955;BME280;32708;51.212;6.788;2023-05-21T01:41:46;101049.06;;;19.81;91.30
46955;BME280;32708;51.212;6.788;2023-05-21T01:44:18;101053.69;;;19.47;93.45
46955;BME280;32708;51.212;6.788;2023-05-21T01:46:44;101048.59;;;19.26;95.21
46955;BME280;32708;51.212;6.788;2023-05-21T01:49:12;101049.97;;;19.62;92.76
46955;BME280;32708;51.212;6.788;2023-05-21T01:51:39;101051.94;;;18.70;96.58
46955;BME280;32708;51.212;6.788;2023-05-21T01:54:05;101051.22;;;19.42;94.32
46955;BME280;32708;51.212;6.788;2023-05-21T01:56:32;101052.72;;;19.59;94.73
46955;BME280;32708;51.212;6.788;2023-05-21T01:58:59;101038.22;;;19.69;90.69
46955;BME280;32708;51.212;6.788;2023-05-21T02:01:26;101046.00;;;20.16;89.53
46955;BME280;32708;51.212;6.788;2023-05-21T02:03:55;101045.72;;;20.28;87.56
46955;BME280;32708;51.212;6.788;2023-05-21T02:06:23;101043.41;;;20.00;88.61
46955;BME280;32708;51.212;6.788;2023-05-21T02:08:49;101043.41;;;20.00;89.61
46955;BME280;32708;51.212;6.788;2023-05-21T02:11:15;101040.41;;;19.33;90.89
46955;BME280;32708;51.212;6.788;2023-05-21T02:13:42;101039.50;;;19.75;91.02
46955;BME280;32708;51.212;6.788;2023-05-21T02:16:08;101040.06;;;19.12;93.29
46955;BME280;32708;51.212;6.788;2023-05-21T02:18:41;101047.13;;;19.32;93.32
46955;BME280;32708;51.212;6.788;2023-05-21T02:21:09;101033.06;;;19.44;92.05
46955;BME280;32708;51.212;6.788;2023-05-21T02:23:38;101035.53;;;19.76;90.94
46955;BME280;32708;51.212;6.788;2023-05-21T02:26:04;101033.44;;;19.96;89.30
46955;BME280;32708;51.212;6.788;2023-05-21T02:28:30;101035.72;;;19.37;92.54
46955;BME280;32708;51.212;6.788;2023-05-21T02:30:57;101033.66;;;18.85;94.25
46955;BME280;32708;51.212;6.788;2023-05-21T02:33:24;101042.03;;;19.11;95.26
46955;BME280;32708;51.212;6.788;2023-05-21T02:35:51;101031.94;;;20.02;90.43
46955;BME280;32708;51.212;6.788;2023-05-21T02:38:17;101031.13;;;18.76;95.57
46955;BME280;32708;51.212;6.788;2023-05-21T02:40:45;101031.47;;;19.43;94.02
46955;BME280;32708;51.212;6.788;2023-05-21T02:43:11;101031.06;;;19.68;91.61
46955;BME280;32708;51.212;6.788;2023-05-21T02:45:37;101027.38;;;19.87;90.48
46955;BME280;32708;51.212;6.788;2023-05-21T02:48:04;101031.88;;;19.68;91.80
46955;BME280;32708;51.212;6.788;2023-05-21T02:50:34;101025.22;;;19.73;90.69
46955;BME280;32708;51.212;6.788;2023-05-21T02:53:00;101024.44;;;19.23;94.90
46955;BME280;32708;51.212;6.788;2023-05-21T02:55:27;101021.41;;;18.86;96.07
46955;BME280;32708;51.212;6.788;2023-05-21T02:57:53;101025.81;;;18.48;97.16
46955;BME280;32708;51.212;6.788;2023-05-21T03:00:19;101023.75;;;18.84;96.78
46955;BME280;32708;51.212;6.788;2023-05-21T03:02:46;101028.69;;;18.52;97.67
46955;BME280;32708;51.212;6.788;2023-05-21T03:05:12;101013.88;;;19.32;94.66
46955;BME280;32708;51.212;6.788;2023-05-21T03:07:38;101018.22;;;19.07;95.61
46955;BME280;32708;51.212;6.788;2023-05-21T03:10:05;101010.91;;;19.71;91.59
46955;BME280;32708;51.212;6.788;2023-05-21T03:12:31;101012.00;;;18.67;96.54
46955;BME280;32708;51.212;6.788;2023-05-21T03:14:58;101006.22;;;19.22;94.20
46955;BME280;32708;51.212;6.788;2023-05-21T03:17:24;101015.78;;;18.40;99.19
46955;BME280;32708;51.212;6.788;2023-05-21T03:19:51;100999.16;;;18.79;95.90
46955;BME280;32708;51.212;6.788;2023-05-21T03:22:17;101004.31;;;19.03;96.50
46955;BME280;32708;51.212;6.788;2023-05-21T03:24:44;101001.94;;;19.02;96.36
46955;BME280;32708;51.212;6.788;2023-05-21T03:27:11;101000.28;;;18.74;97.42
46955;BME280;32708;51.212;6.788;2023-05-21T03:29:37;101006.09;;;18.50;98.70
46955;BME280;32708;51.212;6.788;2023-05-21T03:32:06;101017.28;;;18.99;97.02
46955;BME280;32708;51.212;6.788;2023-05-21T03:34:32;101012.88;;;18.94;96.64
46955;BME280;32708;51.212;6.788;2023-05-21T03:36:59;101016.88;;;18.55;99.83
46955;BME280;32708;51.212;6.788;2023-05-21T03:39:26;101016.44;;;18.33;100.00
46955;BME280;32708;51.212;6.788;2023-05-21T03:41:54;101005.69;;;18.67;98.90
46955;BME280;32708;51.212;6.788;2023-05-21T03:44:32;100998.19;;;18.67;97.94
46955;BME280;32708;51.212;6.788;2023-05-21T03:47:17;100998.31;;;18.36;99.32
46955;BME280;32708;51.212;6.788;2023-05-21T03:49:43;101008.38;;;18.05;100.00
46955;BME280;32708;51.212;6.788;2023-05-21T03:52:10;101000.56;;;18.69;99.56
46955;BME280;32708;51.212;6.788;2023-05-21T03:54:36;100998.78;;;18.19;100.00
46955;BME280;32708;51.212;6.788;2023-05-21T03:57:06;101002.00;;;18.01;100.00
46955;BME280;32708;51.212;6.788;2023-05-21T03:59:32;101006.22;;;18.76;100.00
46955;BME280;32708;51.212;6.788;2023-05-21T04:01:59;101007.72;;;18.31;100.00
46955;BME280;32708;51.212;6.788;2023-05-21T04:04:25;101005.47;;;18.18;100.00
46955;BME280;32708;51.212;6.788;2023-05-21T04:06:52;101003.66;;;17.86;100.00
46955;BME280;32708;51.212;6.788;2023-05-21T04:09:21;101022.53;;;17.84;100.00
46955;BME280;32708;51.212;6.788;2023-05-21T04:11:47;101014.28;;;18.23;100.00
46955;BME280;32708;51.212;6.788;2023-05-21T04:14:13;101011.94;;;18.25;100.00
46955;BME280;32708;51.212;6.788;2023-05-21T04:16:39;101018.41;;;18.33;100.00
46955;BME280;32708;51.212;6.788;2023-05-21T04:19:08;101014.19;;;18.20;100.00
46955;BME280;32708;51.212;6.788;2023-05-21T04:21:35;101016.88;;;18.35;100.00
46955;BME280;32708;51.212;6.788;2023-05-21T04:24:02;101005.56;;;18.83;99.34
46955;BME280;32708;51.212;6.788;2023-05-21T04:27:00;101003.28;;;18.46;100.00
46955;BME280;32708;51.212;6.788;2023-05-21T04:29:29;101008.53;;;18.93;98.79
46955;BME280;32708;51.212;6.788;2023-05-21T04:31:55;101006.31;;;18.80;98.84
46955;BME280;32708;51.212;6.788;2023-05-21T04:34:21;101004.09;;;18.89;97.70
46955;BME280;32708;51.212;6.788;2023-05-21T04:36:47;100996.94;;;18.65;100.00
46955;BME280;32708;51.212;6.788;2023-05-21T04:39:14;101010.34;;;18.43;100.00
46955;BME280;32708;51.212;6.788;2023-05-21T04:41:41;101004.09;;;18.66;98.81
46955;BME280;32708;51.212;6.788;2023-05-21T04:44:14;101002.47;;;19.60;94.50
46955;BME280;32708;51.212;6.788;2023-05-21T04:46:41;101002.16;;;19.42;94.81
46955;BME280;32708;51.212;6.788;2023-05-21T04:49:10;101001.69;;;19.10;96.89
46955;BME280;32708;51.212;6.788;2023-05-21T04:51:38;101001.78;;;19.17;96.79
46955;BME280;32708;51.212;6.788;2023-05-21T04:54:05;101006.16;;;19.18;96.88
46955;BME280;32708;51.212;6.788;2023-05-21T04:56:31;101009.75;;;18.73;98.89
46955;BME280;32708;51.212;6.788;2023-05-21T04:58:57;100998.66;;;19.19;97.21
46955;BME280;32708;51.212;6.788;2023-05-21T05:01:24;100994.81;;;19.27;95.34
46955;BME280;32708;51.212;6.788;2023-05-21T05:03:52;101005.38;;;18.72;98.76
46955;BME280;32708;51.212;6.788;2023-05-21T05:06:18;101005.31;;;18.68;100.00
46955;BME280;32708;51.212;6.788;2023-05-21T05:08:45;100998.34;;;19.50;95.13
46955;BME280;32708;51.212;6.788;2023-05-21T05:11:12;101015.94;;;18.89;99.72
46955;BME280;32708;51.212;6.788;2023-05-21T05:13:39;101008.06;;;18.91;98.57
46955;BME280;32708;51.212;6.788;2023-05-21T05:16:09;101001.16;;;19.54;95.46
46955;BME280;32708;51.212;6.788;2023-05-21T05:18:35;101000.56;;;19.41;96.25
46955;BME280;32708;51.212;6.788;2023-05-21T05:21:02;101005.69;;;19.39;96.25
46955;BME280;32708;51.212;6.788;2023-05-21T05:23:28;101015.06;;;19.31;95.48
46955;BME280;32708;51.212;6.788;2023-05-21T05:25:54;100997.69;;;19.34;97.24
46955;BME280;32708;51.212;6.788;2023-05-21T05:28:20;100997.31;;;19.09;97.55
46955;BME280;32708;51.212;6.788;2023-05-21T05:30:47;101012.25;;;18.20;100.00
46955;BME280;32708;51.212;6.788;2023-05-21T05:33:24;101011.88;;;18.83;99.52
46955;BME280;32708;51.212;6.788;2023-05-21T05:35:51;101015.31;;;19.00;99.38
46955;BME280;32708;51.212;6.788;2023-05-21T05:38:17;101007.81;;;18.77;99.63
46955;BME280;32708;51.212;6.788;2023-05-21T05:40:44;101000.03;;;18.83;100.00
46955;BME280;32708;51.212;6.788;2023-05-21T05:43:10;100989.78;;;19.33;97.81
46955;BME280;32708;51.212;6.788;2023-05-21T05:45:36;100999.41;;;18.70;100.00
46955;BME280;32708;51.212;6.788;2023-05-21T05:48:08;100991.38;;;19.34;98.30
46955;BME280;32708;51.212;6.788;2023-05-21T05:50:35;100996.63;;;19.42;97.81
46955;BME280;32708;51.212;6.788;2023-05-21T05:53:01;100990.88;;;19.02;97.60
46955;BME280;32708;51.212;6.788;2023-05-21T05:55:28;100987.41;;;19.35;97.66
46955;BME280;32708;51.212;6.788;2023-05-21T05:57:54;100995.91;;;19.72;95.23
46955;BME280;32708;51.212;6.788;2023-05-21T06:00:21;101001.38;;;18.92;99.55
46955;BME280;32708;51.212;6.788;2023-05-21T06:02:49;100991.53;;;19.18;99.58
46955;BME280;32708;51.212;6.788;2023-05-21T06:05:15;100996.25;;;18.72;100.00
46955;BME280;32708;51.212;6.788;2023-05-21T06:07:41;100989.59;;;18.73;100.00
46955;BME280;32708;51.212;6.788;2023-05-21T06:10:08;100989.44;;;19.11;99.64
46955;BME280;32708;51.212;6.788;2023-05-21T06:12:35;100985.56;;;19.99;95.25
46955;BME280;32708;51.212;6.788;2023-05-21T06:15:01;100992.72;;;19.20;98.65
46955;BME280;32708;51.212;6.788;2023-05-21T06:17:30;100982.81;;;19.69;96.05
46955;BME280;32708;51.212;6.788;2023-05-21T06:19:57;100981.13;;;20.24;92.76
46955;BME280;32708;51.212;6.788;2023-05-21T06:22:24;100982.47;;;19.74;95.34
46955;BME280;32708;51.212;6.788;2023-05-21T06:24:50;100976.97;;;20.08;93.80
46955;BME280;32708;51.212;6.788;2023-05-21T06:27:16;100978.19;;;20.10;94.09
46955;BME280;32708;51.212;6.788;2023-05-21T06:29:43;100977.44;;;19.83;94.73
46955;BME280;32708;51.212;6.788;2023-05-21T06:32:09;100979.41;;;19.79;94.90
46955;BME280;32708;51.212;6.788;2023-05-21T06:34:35;100988.41;;;19.72;96.19
46955;BME280;32708;51.212;6.788;2023-05-21T06:37:02;100982.69;;;20.22;93.53
46955;BME280;32708;51.212;6.788;2023-05-21T06:39:28;100981.88;;;20.55;91.67
46955;BME280;32708;51.212;6.788;2023-05-21T06:41:54;100975.31;;;21.22;86.66
46955;BME280;32708;51.212;6.788;2023-05-21T06:44:41;100981.69;;;21.22;86.65
46955;BME280;32708;51.212;6.788;2023-05-21T06:47:19;100979.97;;;21.58;85.97
46955;BME280;32708;51.212;6.788;2023-05-21T06:49:45;100983.81;;;21.39;86.57
46955;BME280;32708;51.212;6.788;2023-05-21T06:52:12;100971.94;;;22.33;81.69
46955;BME280;32708;51.212;6.788;2023-05-21T06:54:38;100977.22;;;21.69;83.98
46955;BME280;32708;51.212;6.788;2023-05-21T06:57:06;100985.94;;;21.64;86.46
46955;BME280;32708;51.212;6.788;2023-05-21T06:59:32;100985.47;;;22.31;82.39
46955;BME280;32708;51.212;6.788;2023-05-21T07:02:00;100981.69;;;21.26;86.04
46955;BME280;32708;51.212;6.788;2023-05-21T07:04:26;100976.91;;;21.85;82.19
46955;BME280;32708;51.212;6.788;2023-05-21T07:06:53;100978.31;;;22.34;81.57
46955;BME280;32708;51.212;6.788;2023-05-21T07:09:19;100979.69;;;21.23;85.96
46955;BME280;32708;51.212;6.788;2023-05-21T07:11:46;100982.97;;;20.87;87.15
46955;BME280;32708;51.212;6.788;2023-05-21T07:14:15;100990.00;;;21.81;84.96
46955;BME280;32708;51.212;6.788;2023-05-21T07:16:41;100994.34;;;21.75;82.46
46955;BME280;32708;51.212;6.788;2023-05-21T07:19:08;100988.66;;;22.37;79.62
46955;BME280;32708;51.212;6.788;2023-05-21T07:22:28;101000.69;;;21.20;86.73
46955;BME280;32708;51.212;6.788;2023-05-21T07:24:47;100983.56;;;23.39;77.17
46955;BME280;32708;51.212;6.788;2023-05-21T07:27:14;100995.00;;;22.34;80.34
46955;BME280;32708;51.212;6.788;2023-05-21T07:29:40;100989.63;;;21.89;81.75
46955;BME280;32708;51.212;6.788;2023-05-21T07:32:06;100990.75;;;23.32;78.22
46955;BME280;32708;51.212;6.788;2023-05-21T07:34:34;100984.69;;;22.48;78.94
46955;BME280;32708;51.212;6.788;2023-05-21T07:37:01;100989.56;;;23.30;77.86
46955;BME280;32708;51.212;6.788;2023-05-21T07:39:27;101001.41;;;22.45;79.70
46955;BME280;32708;51.212;6.788;2023-05-21T07:41:54;100998.25;;;22.64;79.25
46955;BME280;32708;51.212;6.788;2023-05-21T07:44:20;101004.13;;;22.23;81.22
46955;BME280;32708;51.212;6.788;2023-05-21T07:46:47;100987.53;;;23.66;75.73
46955;BME280;32708;51.212;6.788;2023-05-21T07:49:13;100989.50;;;23.58;73.59
46955;BME280;32708;51.212;6.788;2023-05-21T07:51:43;100990.31;;;22.66;76.81
46955;BME280;32708;51.212;6.788;2023-05-21T07:54:10;100984.50;;;24.20;72.18
46955;BME280;32708;51.212;6.788;2023-05-21T07:56:36;100987.97;;;23.22;75.90
46955;BME280;32708;51.212;6.788;2023-05-21T07:59:04;100989.94;;;23.21;75.94
46955;BME280;32708;51.212;6.788;2023-05-21T08:01:31;100977.91;;;24.65;70.62
46955;BME280;32708;51.212;6.788;2023-05-21T08:03:58;100988.28;;;23.70;75.30
46955;BME280;32708;51.212;6.788;2023-05-21T08:06:31;100970.78;;;26.19;65.36
46955;BME280;32708;51.212;6.788;2023-05-21T08:09:03;100979.25;;;25.43;67.05
46955;BME280;32708;51.212;6.788;2023-05-21T08:11:31;100977.75;;;25.69;66.22
46955;BME280;32708;51.212;6.788;2023-05-21T08:13:58;100973.63;;;25.02;67.17
46955;BME280;32708;51.212;6.788;2023-05-21T08:16:24;100980.94;;;26.05;64.06
46955;BME280;32708;51.212;6.788;2023-05-21T08:18:50;100969.53;;;25.17;67.58
46955;BME280;32708;51.212;6.788;2023-05-21T08:21:20;100975.69;;;25.39;66.36
46955;BME280;32708;51.212;6.788;2023-05-21T08:23:46;100980.78;;;24.51;70.78
46955;BME280;32708;51.212;6.788;2023-05-21T08:26:16;100980.06;;;24.92;67.57
46955;BME280;32708;51.212;6.788;2023-05-21T08:28:45;100986.38;;;25.86;64.74
46955;BME280;32708;51.212;6.788;2023-05-21T08:31:31;100977.28;;;25.78;64.79
46955;BME280;32708;51.212;6.788;2023-05-21T08:34:16;100983.44;;;25.24;65.53
46955;BME280;32708;51.212;6.788;2023-05-21T08:37:09;100981.94;;;27.27;60.84
46955;BME280;32708;51.212;6.788;2023-05-21T08:40:12;100983.25;;;26.45;63.94
46955;BME280;32708;51.212;6.788;2023-05-21T08:42:51;100978.81;;;27.45;59.63
46955;BME280;32708;51.212;6.788;2023-05-21T08:45:38;100987.16;;;25.90;64.86
46955;BME280;32708;51.212;6.788;2023-05-21T08:48:36;100978.13;;;25.75;63.97
46955;BME280;32708;51.212;6.788;2023-05-21T08:51:08;100974.59;;;25.67;64.50
46955;BME280;32708;51.212;6.788;2023-05-21T08:53:43;100963.44;;;25.64;65.40
46955;BME280;32708;51.212;6.788;2023-05-21T08:56:12;100964.56;;;26.08;63.31
46955;BME280;32708;51.212;6.788;2023-05-21T08:58:53;100962.25;;;25.99;63.80
46955;BME280;32708;51.212;6.788;2023-05-21T09:01:23;100967.19;;;25.50;66.29
46955;BME280;32708;51.212;6.788;2023-05-21T09:03:58;100960.78;;;25.53;66.84
46955;BME280;32708;51.212;6.788;2023-05-21T09:06:26;100964.81;;;25.48;66.47
46955;BME280;32708;51.212;6.788;2023-05-21T09:09:13;100977.53;;;25.15;67.96
46955;BME280;32708;51.212;6.788;2023-05-21T09:11:47;100970.09;;;24.28;71.55
46955;BME280;32708;51.212;6.788;2023-05-21T09:14:15;100964.03;;;25.03;69.53
46955;BME280;32708;51.212;6.788;2023-05-21T09:17:00;100963.66;;;25.01;69.60
46955;BME280;32708;51.212;6.788;2023-05-21T09:19:27;100955.59;;;25.51;70.25
46955;BME280;32708;51.212;6.788;2023-05-21T09:22:01;100953.47;;;26.58;64.58
46955;BME280;32708;51.212;6.788;2023-05-21T09:24:32;100957.44;;;25.99;65.49
46955;BME280;32708;51.212;6.788;2023-05-21T09:26:59;100957.84;;;26.28;64.36
46955;BME280;32708;51.212;6.788;2023-05-21T09:29:25;100958.91;;;26.11;65.32
46955;BME280;32708;51.212;6.788;2023-05-21T09:31:52;100957.41;;;25.69;67.60
46955;BME280;32708;51.212;6.788;2023-05-21T09:34:23;100945.94;;;27.25;61.95
46955;BME280;32708;51.212;6.788;2023-05-21T09:36:50;100932.88;;;27.98;58.63
46955;BME280;32708;51.212;6.788;2023-05-21T09:39:29;100931.94;;;28.41;56.88
46955;BME280;32708;51.212;6.788;2023-05-21T09:41:57;100935.44;;;28.77;56.11
46955;BME280;32708;51.212;6.788;2023-05-21T09:44:24;100944.38;;;27.64;57.56
46955;BME280;32708;51.212;6.788;2023-05-21T09:46:56;100940.91;;;27.80;58.91
46955;BME280;32708;51.212;6.788;2023-05-21T09:49:26;100951.09;;;27.03;60.42
46955;BME280;32708;51.212;6.788;2023-05-21T09:51:57;100950.84;;;25.86;64.65
46955;BME280;32708;51.212;6.788;2023-05-21T09:54:25;100945.97;;;27.22;60.33
46955;BME280;32708;51.212;6.788;2023-05-21T09:56:55;100939.63;;;27.61;59.57
46955;BME280;32708;51.212;6.788;2023-05-21T09:59:22;100927.81;;;28.78;56.99
46955;BME280;32708;51.212;6.788;2023-05-21T10:01:52;100921.75;;;27.94;56.72
46955;BME280;32708;51.212;6.788;2023-05-21T10:04:22;100924.03;;;27.40;58.81
46955;BME280;32708;51.212;6.788;2023-05-21T10:06:53;100931.75;;;26.35;62.40
46955;BME280;32708;51.212;6.788;2023-05-21T10:09:20;100915.19;;;28.01;58.15
46955;BME280;32708;51.212;6.788;2023-05-21T10:11:51;100923.69;;;26.68;62.17
46955;BME280;32708;51.212;6.788;2023-05-21T10:14:19;100929.66;;;26.93;62.97
46955;BME280;32708;51.212;6.788;2023-05-21T10:16:47;100935.03;;;26.57;62.52
46955;BME280;32708;51.212;6.788;2023-05-21T10:19:15;100919.13;;;28.56;57.66
46955;BME280;32708;51.212;6.788;2023-05-21T10:21:42;100919.28;;;27.96;57.76
46955;BME280;32708;51.212;6.788;2023-05-21T10:24:10;100915.53;;;27.63;59.12
46955;BME280;32708;51.212;6.788;2023-05-21T10:26:38;100924.66;;;27.48;60.10
46955;BME280;32708;51.212;6.788;2023-05-21T10:29:07;100914.44;;;26.94;60.15
46955;BME280;32708;51.212;6.788;2023-05-21T10:31:34;100917.38;;;28.10;59.36
46955;BME280;32708;51.212;6.788;2023-05-21T10:34:03;100910.75;;;28.00;58.70
46955;BME280;32708;51.212;6.788;2023-05-21T10:36:31;100911.78;;;28.10;59.19
46955;BME280;32708;51.212;6.788;2023-05-21T10:39:01;100917.13;;;27.45;59.39
46955;BME280;32708;51.212;6.788;2023-05-21T10:41:44;100905.59;;;28.84;56.39
46955;BME280;32708;51.212;6.788;2023-05-21T10:53:13;100881.19;;;29.26;55.33
46955;BME280;32708;51.212;6.788;2023-05-21T10:58:38;100877.94;;;29.27;55.43
46955;BME280;32708;51.212;6.788;2023-05-21T11:01:10;100865.59;;;29.92;54.20
46955;BME280;32708;51.212;6.788;2023-05-21T11:03:38;100868.09;;;28.90;54.52
46955;BME280;32708;51.212;6.788;2023-05-21T11:06:04;100869.28;;;29.51;54.37
46955;BME280;32708;51.212;6.788;2023-05-21T11:08:31;100873.13;;;28.34;56.62
46955;BME280;32708;51.212;6.788;2023-05-21T11:11:03;100878.38;;;28.15;57.06
46955;BME280;32708;51.212;6.788;2023-05-21T11:13:48;100874.53;;;27.89;58.28
46955;BME280;32708;51.212;6.788;2023-05-21T11:16:16;100889.75;;;28.08;58.51
46955;BME280;32708;51.212;6.788;2023-05-21T11:21:17;100860.84;;;29.34;54.34
46955;BME280;32708;51.212;6.788;2023-05-21T11:24:05;100863.38;;;30.25;52.17
46955;BME280;32708;51.212;6.788;2023-05-21T11:29:13;100862.56;;;28.21;58.06
46955;BME280;32708;51.212;6.788;2023-05-21T11:31:46;100862.94;;;28.56;59.17
46955;BME280;32708;51.212;6.788;2023-05-21T11:34:21;100861.91;;;28.66;58.39
46955;BME280;32708;51.212;6.788;2023-05-21T11:39:53;100855.25;;;29.76;54.33
46955;BME280;32708;51.212;6.788;2023-05-21T11:42:37;100850.88;;;29.46;55.57
46955;BME280;32708;51.212;6.788;2023-05-21T11:45:05;100843.41;;;29.27;54.49
46955;BME280;32708;51.212;6.788;2023-05-21T11:47:32;100860.97;;;28.20;58.15
46955;BME280;32708;51.212;6.788;2023-05-21T11:50:01;100854.09;;;28.58;56.70
46955;BME280;32708;51.212;6.788;2023-05-21T11:52:31;100852.41;;;30.53;52.47
46955;BME280;32708;51.212;6.788;2023-05-21T11:54:58;100853.56;;;29.37;55.42
46955;BME280;32708;51.212;6.788;2023-05-21T11:57:28;100848.63;;;29.96;53.50
46955;BME280;32708;51.212;6.788;2023-05-21T12:01:54;100845.91;;;29.67;54.55
46955;BME280;32708;51.212;6.788;2023-05-21T12:04:21;100835.59;;;29.47;55.04
46955;BME280;32708;51.212;6.788;2023-05-21T12:06:47;100841.06;;;30.05;53.14
46955;BME280;32708;51.212;6.788;2023-05-21T12:09:15;100835.66;;;29.73;54.62
46955;BME280;32708;51.212;6.788;2023-05-21T12:11:42;100837.94;;;30.16;53.09
46955;BME280;32708;51.212;6.788;2023-05-21T12:14:13;100840.16;;;30.21;52.61
46955;BME280;32708;51.212;6.788;2023-05-21T12:16:39;100836.19;;;29.26;53.52
46955;BME280;32708;51.212;6.788;2023-05-21T12:19:06;100845.34;;;29.43;54.90
46955;BME280;32708;51.212;6.788;2023-05-21T12:21:34;100830.81;;;29.31;54.98
46955;BME280;32708;51.212;6.788;2023-05-21T12:24:01;100823.25;;;30.34;52.70
46955;BME280;32708;51.212;6.788;2023-05-21T12:26:29;100828.41;;;30.48;53.08
46955;BME280;32708;51.212;6.788;2023-05-21T12:28:58;100826.88;;;29.96;54.56
46955;BME280;32708;51.212;6.788;2023-05-21T12:31:24;100826.97;;;29.93;53.68
46955;BME280;32708;51.212;6.788;2023-05-21T12:33:52;100825.06;;;30.02;53.54
46955;BME280;32708;51.212;6.788;2023-05-21T12:36:29;100828.38;;;30.74;51.69
46955;BME280;32708;51.212;6.788;2023-05-21T12:38:59;100823.00;;;30.54;51.16
46955;BME280;32708;51.212;6.788;2023-05-21T12:41:25;100827.88;;;29.77;52.63
46955;BME280;32708;51.212;6.788;2023-05-21T12:43:52;100837.50;;;29.50;53.60
46955;BME280;32708;51.212;6.788;2023-05-21T12:46:20;100824.59;;;29.78;52.93
46955;BME280;32708;51.212;6.788;2023-05-21T12:48:49;100828.69;;;30.03;53.39
46955;BME280;32708;51.212;6.788;2023-05-21T12:51:18;100830.38;;;30.13;52.42
46955;BME280;32708;51.212;6.788;2023-05-21T12:53:46;100808.88;;;29.81;52.64
46955;BME280;32708;51.212;6.788;2023-05-21T12:56:14;100819.13;;;29.33;54.02
46955;BME280;32708;51.212;6.788;2023-05-21T12:58:42;100823.75;;;28.00;57.22
46955;BME280;32708;51.212;6.788;2023-05-21T13:01:14;100818.97;;;29.78;53.96
46955;BME280;32708;51.212;6.788;2023-05-21T13:03:41;100819.44;;;28.32;56.76
46955;BME280;32708;51.212;6.788;2023-05-21T13:06:08;100824.25;;;29.22;55.41
46955;BME280;32708;51.212;6.788;2023-05-21T13:08:35;100822.25;;;29.90;54.02
46955;BME280;32708;51.212;6.788;2023-05-21T13:11:02;100818.19;;;29.78;54.49
46955;BME280;32708;51.212;6.788;2023-05-21T13:13:29;100822.84;;;30.23;53.12
46955;BME280;32708;51.212;6.788;2023-05-21T13:15:56;100815.28;;;29.94;52.85
46955;BME280;32708;51.212;6.788;2023-05-21T13:18:25;100814.81;;;30.21;52.60
46955;BME280;32708;51.212;6.788;2023-05-21T13:20:51;100815.03;;;30.39;52.15
46955;BME280;32708;51.212;6.788;2023-05-21T13:23:18;100813.56;;;30.35;52.43